createdAt,value
2022-12-11T00:01:10.817Z,63.63
2022-12-11T00:03:39.175Z,63.89
2022-12-11T00:06:08.763Z,63.69
2022-12-11T00:08:37.682Z,63.69
2022-12-11T00:11:06.641Z,63.81
2022-12-11T00:13:36.079Z,64.05
2022-12-11T00:16:04.220Z,64.24
2022-12-11T00:18:32.461Z,64.32
2022-12-11T00:21:02.615Z,64.24
2022-12-11T00:23:30.966Z,64.26
2022-12-11T00:25:59.192Z,64.60
2022-12-11T00:28:27.270Z,64.24
2022-12-11T00:30:56.625Z,64.14
2022-12-11T00:33:24.644Z,63.98
2022-12-11T00:35:52.675Z,63.89
2022-12-11T00:38:22.549Z,63.73
2022-12-11T00:40:51.051Z,63.60
2022-12-11T00:43:19.198Z,63.67
2022-12-11T00:45:48.658Z,64.02
2022-12-11T00:48:18.063Z,64.18
2022-12-11T00:50:46.124Z,64.08
2022-12-11T00:53:14.238Z,63.87
2022-12-11T00:55:44.113Z,63.94
2022-12-11T00:58:13.030Z,64.05
2022-12-11T01:00:42.058Z,64.27
2022-12-11T01:03:10.684Z,64.16
2022-12-11T01:05:40.666Z,64.30
2022-12-11T01:08:09.062Z,64.17
2022-12-11T01:10:36.182Z,64.36
2022-12-11T01:13:06.729Z,64.62
2022-12-11T01:15:41.560Z,64.73
2022-12-11T01:18:10.424Z,64.41
2022-12-11T01:20:42.579Z,64.59
2022-12-11T01:23:12.941Z,64.44
2022-12-11T01:25:41.614Z,64.43
2022-12-11T01:28:10.582Z,65.06
2022-12-11T01:30:39.106Z,64.72
2022-12-11T01:33:07.088Z,64.93
2022-12-11T01:35:35.163Z,64.54
2022-12-11T01:38:04.618Z,64.59
2022-12-11T01:40:32.911Z,64.63
2022-12-11T01:43:00.932Z,65.01
2022-12-11T01:45:42.058Z,64.21
2022-12-11T01:48:13.495Z,64.33
2022-12-11T01:50:46.405Z,64.49
2022-12-11T01:53:21.050Z,64.32
2022-12-11T01:55:50.717Z,64.40
2022-12-11T01:58:19.897Z,64.54
2022-12-11T02:00:48.189Z,64.47
2022-12-11T02:03:16.532Z,64.38
2022-12-11T02:05:44.572Z,64.43
2022-12-11T02:08:13.158Z,64.88
2022-12-11T02:10:51.092Z,65.27
2022-12-11T02:13:24.596Z,64.71
2022-12-11T02:16:00.803Z,64.95
2022-12-11T02:18:36.043Z,65.07
2022-12-11T02:21:09.839Z,64.91
2022-12-11T02:23:59.496Z,64.65
2022-12-11T02:26:52.028Z,64.66
2022-12-11T02:29:27.005Z,64.79
2022-12-11T02:32:00.815Z,64.82
2022-12-11T02:34:36.180Z,64.82
2022-12-11T02:37:08.802Z,64.79
2022-12-11T02:39:39.907Z,64.56
2022-12-11T02:42:09.111Z,64.59
2022-12-11T02:44:40.181Z,64.76
2022-12-11T02:47:12.508Z,64.50
2022-12-11T02:49:43.064Z,64.76
2022-12-11T02:52:13.950Z,64.92
2022-12-11T02:54:44.973Z,64.81
2022-12-11T02:57:17.514Z,64.84
2022-12-11T02:59:47.943Z,64.75
2022-12-11T03:02:18.912Z,64.56
2022-12-11T03:04:47.799Z,64.37
2022-12-11T03:07:20.100Z,64.57
2022-12-11T03:09:49.460Z,64.99
2022-12-11T03:12:22.584Z,64.83
2022-12-11T03:14:52.353Z,64.84
2022-12-11T03:17:23.148Z,64.83
2022-12-11T03:19:57.990Z,64.59
2022-12-11T03:22:34.107Z,64.28
2022-12-11T03:25:05.425Z,64.51
2022-12-11T03:27:39.439Z,64.90
2022-12-11T03:30:13.018Z,64.67
2022-12-11T03:32:47.802Z,64.38
2022-12-11T03:35:22.114Z,64.43
2022-12-11T03:37:52.138Z,64.63
2022-12-11T03:40:22.994Z,64.79
2022-12-11T03:42:53.793Z,64.79
2022-12-11T03:45:25.980Z,64.57
2022-12-11T03:47:56.216Z,64.62
2022-12-11T03:50:25.648Z,64.34
2022-12-11T03:52:56.271Z,64.27
2022-12-11T03:55:25.229Z,64.24
2022-12-11T03:57:53.472Z,64.30
2022-12-11T04:00:24.253Z,64.14
2022-12-11T04:03:12.631Z,64.27
2022-12-11T04:05:41.355Z,64.43
2022-12-11T04:08:09.409Z,64.54
2022-12-11T04:10:37.510Z,64.53
2022-12-11T04:13:05.612Z,64.71
2022-12-11T04:15:34.257Z,64.66
2022-12-11T04:18:19.712Z,64.40
2022-12-11T04:21:05.544Z,64.17
2022-12-11T04:23:50.873Z,64.13
2022-12-11T04:26:21.087Z,63.36
2022-12-11T04:28:50.173Z,63.66
2022-12-11T04:31:21.604Z,62.90
2022-12-11T04:33:50.220Z,62.93
2022-12-11T04:36:18.755Z,62.90
2022-12-11T04:38:46.816Z,63.53
2022-12-11T04:41:16.648Z,63.78
2022-12-11T04:43:45.463Z,63.68
2022-12-11T04:46:15.495Z,63.85
2022-12-11T04:48:45.132Z,64.03
2022-12-11T04:51:13.575Z,63.87
2022-12-11T04:53:42.021Z,63.80
2022-12-11T04:56:12.222Z,63.69
2022-12-11T04:58:41.205Z,63.82
2022-12-11T05:01:10.037Z,64.07
2022-12-11T05:03:38.384Z,64.04
2022-12-11T05:06:09.172Z,63.96
2022-12-11T05:08:40.204Z,63.92
2022-12-11T05:11:10.863Z,64.34
2022-12-11T05:13:39.049Z,63.42
2022-12-11T05:16:08.673Z,63.13
2022-12-11T05:18:37.174Z,62.61
2022-12-11T05:21:08.816Z,62.61
2022-12-11T05:23:37.297Z,63.10
2022-12-11T05:26:08.341Z,63.21
2022-12-11T05:28:38.605Z,63.00
2022-12-11T05:31:09.324Z,62.60
2022-12-11T05:33:37.344Z,62.89
2022-12-11T05:36:07.675Z,62.71
2022-12-11T05:38:36.215Z,62.77
2022-12-11T05:41:06.088Z,62.92
2022-12-11T05:43:35.954Z,63.42
2022-12-11T05:46:11.403Z,63.09
2022-12-11T05:48:40.295Z,62.87
2022-12-11T05:51:10.117Z,62.79
2022-12-11T05:53:39.210Z,62.73
2022-12-11T05:56:09.360Z,62.80
2022-12-11T05:58:37.674Z,62.63
2022-12-11T06:01:09.132Z,62.60
2022-12-11T06:03:37.212Z,62.60
2022-12-11T06:06:06.142Z,62.85
2022-12-11T06:08:36.247Z,62.74
2022-12-11T06:11:05.241Z,62.56
2022-12-11T06:13:33.644Z,62.44
2022-12-11T06:16:03.532Z,62.33
2022-12-11T06:18:31.929Z,62.37
2022-12-11T06:20:59.977Z,62.28
2022-12-11T06:23:28.049Z,62.27
2022-12-11T06:25:57.490Z,62.17
2022-12-11T06:28:25.508Z,62.16
2022-12-11T06:30:53.550Z,62.40
2022-12-11T06:33:21.558Z,63.29
2022-12-11T06:35:49.556Z,63.51
2022-12-11T06:38:17.577Z,63.47
2022-12-11T06:40:45.700Z,63.61
2022-12-11T06:43:15.080Z,63.64
2022-12-11T06:45:43.147Z,63.77
2022-12-11T06:48:11.173Z,63.83
2022-12-11T06:50:39.588Z,63.89
2022-12-11T06:53:07.638Z,64.12
2022-12-11T06:55:36.385Z,64.40
2022-12-11T06:58:04.904Z,64.24
2022-12-11T07:00:36.288Z,64.06
2022-12-11T07:03:05.135Z,64.05
2022-12-11T07:05:33.727Z,63.97
2022-12-11T07:08:01.996Z,63.82
2022-12-11T07:10:30.168Z,64.09
2022-12-11T07:12:58.128Z,63.79
2022-12-11T07:15:26.201Z,64.24
2022-12-11T07:17:55.569Z,64.05
2022-12-11T07:20:23.906Z,64.27
2022-12-11T07:22:51.948Z,64.51
2022-12-11T07:25:19.932Z,64.20
2022-12-11T07:27:47.953Z,64.01
2022-12-11T07:30:16.018Z,63.90
2022-12-11T07:32:44.053Z,63.76
2022-12-11T07:35:13.684Z,63.76
2022-12-11T07:37:42.562Z,63.78
2022-12-11T07:40:11.997Z,63.73
2022-12-11T07:42:45.861Z,63.85
2022-12-11T07:45:14.681Z,64.15
2022-12-11T07:47:43.119Z,64.11
2022-12-11T07:50:11.625Z,64.23
2022-12-11T07:52:41.023Z,64.32
2022-12-11T07:55:09.990Z,64.37
2022-12-11T07:57:38.345Z,64.39
2022-12-11T08:00:07.775Z,64.34
2022-12-11T08:02:40.646Z,64.25
2022-12-11T08:05:10.056Z,64.21
2022-12-11T08:07:38.259Z,64.39
2022-12-11T08:10:09.352Z,64.18
2022-12-11T08:12:37.340Z,64.12
2022-12-11T08:15:06.128Z,64.08
2022-12-11T08:17:39.791Z,64.23
2022-12-11T08:20:09.513Z,64.33
2022-12-11T08:22:37.515Z,64.56
2022-12-11T08:25:06.375Z,64.59
2022-12-11T08:27:35.869Z,64.58
2022-12-11T08:30:04.166Z,64.39
2022-12-11T08:32:32.149Z,64.87
2022-12-11T08:35:00.172Z,64.95
2022-12-11T08:37:29.595Z,64.24
2022-12-11T08:39:57.640Z,64.37
2022-12-11T08:42:25.654Z,63.94
2022-12-11T08:44:55.036Z,64.08
2022-12-11T08:47:23.095Z,64.05
2022-12-11T08:49:51.107Z,63.95
2022-12-11T08:52:19.126Z,63.70
2022-12-11T08:54:47.133Z,63.63
2022-12-11T08:57:15.309Z,63.64
2022-12-11T08:59:43.340Z,63.79
2022-12-11T09:02:13.476Z,63.98
2022-12-11T09:04:41.759Z,63.89
2022-12-11T09:07:09.790Z,64.06
2022-12-11T09:09:37.916Z,65.27
2022-12-11T09:12:06.432Z,64.19
2022-12-11T09:14:35.447Z,63.96
2022-12-11T09:17:05.409Z,64.14
2022-12-11T09:19:34.879Z,64.08
2022-12-11T09:22:02.962Z,63.86
2022-12-11T09:24:31.036Z,63.92
2022-12-11T09:26:59.087Z,63.66
2022-12-11T09:29:27.125Z,63.47
2022-12-11T09:31:55.168Z,63.35
2022-12-11T09:34:28.920Z,63.46
2022-12-11T09:36:59.548Z,63.70
2022-12-11T09:39:27.621Z,63.07
2022-12-11T09:42:02.405Z,63.36
2022-12-11T09:44:39.098Z,63.69
2022-12-11T09:47:21.433Z,62.92
2022-12-11T09:49:53.832Z,63.73
2022-12-11T09:52:29.553Z,63.17
2022-12-11T09:55:00.303Z,63.66
2022-12-11T09:57:36.532Z,63.60
2022-12-11T10:00:16.010Z,63.15
2022-12-11T10:03:08.852Z,63.11
2022-12-11T10:05:42.084Z,62.74
2022-12-11T10:08:18.174Z,63.07
2022-12-11T10:10:54.238Z,63.04
2022-12-11T10:13:32.077Z,63.21
2022-12-11T10:16:05.044Z,63.08
2022-12-11T10:18:34.585Z,62.87
2022-12-11T10:21:04.430Z,62.80
2022-12-11T10:23:39.884Z,62.78
2022-12-11T10:26:12.324Z,63.24
2022-12-11T10:28:40.469Z,63.19
2022-12-11T10:31:17.210Z,62.70
2022-12-11T10:33:55.626Z,63.28
2022-12-11T10:36:29.324Z,62.31
2022-12-11T10:38:59.839Z,62.87
2022-12-11T10:41:39.019Z,62.86
2022-12-11T10:44:17.602Z,62.98
2022-12-11T10:46:46.449Z,63.42
2022-12-11T10:49:26.777Z,63.05
2022-12-11T10:51:56.233Z,63.16
2022-12-11T10:54:34.787Z,62.70
2022-12-11T10:57:04.303Z,63.42
2022-12-11T10:59:37.797Z,63.49
2022-12-11T11:02:08.040Z,63.92
2022-12-11T11:04:38.968Z,63.28
2022-12-11T11:07:15.443Z,62.77
2022-12-11T11:09:45.026Z,62.95
2022-12-11T11:12:26.265Z,62.93
2022-12-11T11:15:02.087Z,63.03
2022-12-11T11:17:34.953Z,63.83
2022-12-11T11:20:14.024Z,64.15
2022-12-11T11:22:45.258Z,63.67
2022-12-11T11:25:20.790Z,63.73
2022-12-11T11:27:54.545Z,63.36
2022-12-11T11:30:25.450Z,63.63
2022-12-11T11:32:56.425Z,63.51
2022-12-11T11:35:27.049Z,63.21
2022-12-11T11:38:01.589Z,63.08
2022-12-11T11:40:34.547Z,63.56
2022-12-11T11:43:11.149Z,64.11
2022-12-11T11:45:44.444Z,63.58
2022-12-11T11:48:23.865Z,64.00
2022-12-11T11:50:54.076Z,63.72
2022-12-11T11:53:28.762Z,63.60
2022-12-11T11:56:08.280Z,63.73
2022-12-11T11:58:42.877Z,63.87
2022-12-11T12:01:16.094Z,64.13
2022-12-11T12:03:44.690Z,63.92
2022-12-11T12:06:20.229Z,63.67
2022-12-11T12:08:59.175Z,63.16
2022-12-11T12:11:35.973Z,63.10
2022-12-11T12:14:43.718Z,63.37
2022-12-11T12:17:11.604Z,63.51
2022-12-11T12:19:48.013Z,62.71
2022-12-11T12:22:34.969Z,62.53
2022-12-11T12:25:15.668Z,62.47
2022-12-11T12:27:53.141Z,62.97
2022-12-11T12:30:23.441Z,62.65
2022-12-11T12:33:15.019Z,62.24
2022-12-11T12:35:51.396Z,62.76
2022-12-11T12:38:24.833Z,62.80
2022-12-11T12:41:02.109Z,62.50
2022-12-11T12:43:52.223Z,63.37
2022-12-11T12:46:30.356Z,63.08
2022-12-11T12:49:00.298Z,63.56
2022-12-11T12:51:29.503Z,63.42
2022-12-11T12:54:00.323Z,63.06
2022-12-11T12:56:30.237Z,62.82
2022-12-11T12:58:59.774Z,63.25
2022-12-11T13:01:30.239Z,63.22
2022-12-11T13:04:02.107Z,62.82
2022-12-11T13:06:35.944Z,63.02
2022-12-11T13:09:19.304Z,62.79
2022-12-11T13:11:50.145Z,62.73
2022-12-11T13:14:31.101Z,62.12
2022-12-11T13:17:27.687Z,62.48
2022-12-11T13:20:16.217Z,62.87
2022-12-11T13:22:54.428Z,63.23
2022-12-11T13:25:26.486Z,63.19
2022-12-11T13:28:05.215Z,63.42
2022-12-11T13:30:35.448Z,63.11
2022-12-11T13:33:06.742Z,62.98
2022-12-11T13:35:36.439Z,63.67
2022-12-11T13:38:09.197Z,62.66
2022-12-11T13:40:42.681Z,62.68
2022-12-11T13:43:19.409Z,62.91
2022-12-11T13:45:52.235Z,62.56
2022-12-11T13:48:26.041Z,62.50
2022-12-11T13:50:55.321Z,63.26
2022-12-11T13:53:24.045Z,63.75
2022-12-11T13:55:59.567Z,63.02
2022-12-11T13:58:28.964Z,62.89
2022-12-11T14:01:08.714Z,62.79
2022-12-11T14:03:37.061Z,63.99
2022-12-11T14:06:05.418Z,63.49
2022-12-11T14:08:37.268Z,63.18
2022-12-11T14:11:06.458Z,63.18
2022-12-11T14:13:37.260Z,63.23
2022-12-11T14:16:08.370Z,63.39
2022-12-11T14:18:38.141Z,62.99
2022-12-11T14:21:07.685Z,63.11
2022-12-11T14:23:37.481Z,62.96
2022-12-11T14:26:17.226Z,63.59
2022-12-11T14:28:45.788Z,63.89
2022-12-11T14:31:17.922Z,63.96
2022-12-11T14:33:49.947Z,63.74
2022-12-11T14:36:20.193Z,64.09
2022-12-11T14:38:53.566Z,64.37
2022-12-11T14:41:26.361Z,64.18
2022-12-11T14:43:58.006Z,63.92
2022-12-11T14:46:36.115Z,63.57
2022-12-11T14:49:13.013Z,64.63
2022-12-11T14:51:42.123Z,64.49
2022-12-11T14:54:20.502Z,64.18
2022-12-11T14:56:48.766Z,63.69
2022-12-11T14:59:27.019Z,63.58
2022-12-11T15:02:03.494Z,64.21
2022-12-11T15:04:34.482Z,63.73
2022-12-11T15:07:02.708Z,63.64
2022-12-11T15:09:40.658Z,62.90
2022-12-11T15:12:13.058Z,62.81
2022-12-11T15:14:48.679Z,62.64
2022-12-11T15:17:18.786Z,63.09
2022-12-11T15:19:51.159Z,62.92
2022-12-11T15:22:21.080Z,63.64
2022-12-11T15:24:52.678Z,63.63
2022-12-11T15:27:27.088Z,63.17
2022-12-11T15:29:55.221Z,63.75
2022-12-11T15:32:26.041Z,63.21
2022-12-11T15:34:55.986Z,63.18
2022-12-11T15:37:26.386Z,62.98
2022-12-11T15:39:55.692Z,63.18
2022-12-11T15:42:30.119Z,63.60
2022-12-11T15:44:59.064Z,63.45
2022-12-11T15:47:30.386Z,62.85
2022-12-11T15:50:00.619Z,63.28
2022-12-11T15:52:29.123Z,62.94
2022-12-11T15:54:57.103Z,63.44
2022-12-11T15:57:25.774Z,63.41
2022-12-11T15:59:56.318Z,63.07
2022-12-11T16:02:26.800Z,63.32
2022-12-11T16:04:58.811Z,64.15
2022-12-11T16:07:27.741Z,63.57
2022-12-11T16:09:55.863Z,64.15
2022-12-11T16:12:23.873Z,63.50
2022-12-11T16:14:52.086Z,63.75
2022-12-11T16:17:20.155Z,63.92
2022-12-11T16:19:48.225Z,63.93
2022-12-11T16:22:17.643Z,63.50
2022-12-11T16:24:45.725Z,64.07
2022-12-11T16:27:17.310Z,63.79
2022-12-11T16:29:48.297Z,63.85
2022-12-11T16:32:16.341Z,63.73
2022-12-11T16:34:44.512Z,63.82
2022-12-11T16:37:13.064Z,63.90
2022-12-11T16:39:44.813Z,63.69
2022-12-11T16:42:12.923Z,64.24
2022-12-11T16:44:43.942Z,63.89
2022-12-11T16:47:12.377Z,64.06
2022-12-11T16:49:40.807Z,64.26
2022-12-11T16:52:09.015Z,64.08
2022-12-11T16:54:37.221Z,64.96
2022-12-11T16:57:06.665Z,64.57
2022-12-11T16:59:37.484Z,64.79
2022-12-11T17:02:06.441Z,64.37
2022-12-11T17:04:34.568Z,64.01
2022-12-11T17:07:02.533Z,64.53
2022-12-11T17:09:30.582Z,64.16
2022-12-11T17:11:58.746Z,63.88
2022-12-11T17:14:28.643Z,63.72
2022-12-11T17:16:56.841Z,63.81
2022-12-11T17:19:24.986Z,64.43
2022-12-11T17:21:54.154Z,63.95
2022-12-11T17:24:22.376Z,63.66
2022-12-11T17:26:50.477Z,63.89
2022-12-11T17:29:18.634Z,64.20
2022-12-11T17:31:48.519Z,64.35
2022-12-11T17:34:17.019Z,63.89
2022-12-11T17:36:46.519Z,64.30
2022-12-11T17:39:14.520Z,64.72
2022-12-11T17:41:42.580Z,65.47
2022-12-11T17:44:11.324Z,64.93
2022-12-11T17:46:39.359Z,64.27
2022-12-11T17:49:08.753Z,64.44
2022-12-11T17:51:38.137Z,64.09
2022-12-11T17:54:06.214Z,64.70
2022-12-11T17:56:36.106Z,64.41
2022-12-11T17:59:04.683Z,63.97
2022-12-11T18:01:32.994Z,64.47
2022-12-11T18:04:01.814Z,64.07
2022-12-11T18:06:31.976Z,63.49
2022-12-11T18:09:00.025Z,63.35
2022-12-11T18:11:28.117Z,64.14
2022-12-11T18:13:56.144Z,65.18
2022-12-11T18:16:26.734Z,64.01
2022-12-11T18:18:56.431Z,63.86
2022-12-11T18:21:27.241Z,63.59
2022-12-11T18:23:57.430Z,63.37
2022-12-11T18:26:25.902Z,63.25
2022-12-11T18:28:54.273Z,63.01
2022-12-11T18:31:24.015Z,63.44
2022-12-11T18:33:52.837Z,63.56
2022-12-11T18:36:21.744Z,63.73
2022-12-11T18:38:49.992Z,63.42
2022-12-11T18:41:23.012Z,62.85
2022-12-11T18:43:51.062Z,62.79
2022-12-11T18:46:21.087Z,62.86
2022-12-11T18:48:50.605Z,62.58
2022-12-11T18:51:22.569Z,62.63
2022-12-11T18:53:51.126Z,62.96
2022-12-11T18:56:21.639Z,62.60
2022-12-11T18:58:51.672Z,63.03
2022-12-11T19:01:22.104Z,62.58
2022-12-11T19:03:51.488Z,62.57
2022-12-11T19:06:21.556Z,62.40
2022-12-11T19:08:49.615Z,62.43
2022-12-11T19:11:18.862Z,62.54
2022-12-11T19:13:48.645Z,62.77
2022-12-11T19:16:18.832Z,62.58
2022-12-11T19:18:47.458Z,62.93
2022-12-11T19:21:17.513Z,62.34
2022-12-11T19:23:46.935Z,62.53
2022-12-11T19:26:16.672Z,62.40
2022-12-11T19:28:45.613Z,62.74
2022-12-11T19:31:17.374Z,62.81
2022-12-11T19:33:46.758Z,62.96
2022-12-11T19:36:16.770Z,63.03
2022-12-11T19:38:46.356Z,62.57
2022-12-11T19:41:17.816Z,62.11
2022-12-11T19:43:46.046Z,62.31
2022-12-11T19:46:16.612Z,62.08
2022-12-11T19:48:45.794Z,62.03
2022-12-11T19:51:17.009Z,61.96
2022-12-11T19:53:45.984Z,62.39
2022-12-11T19:56:14.344Z,62.27
2022-12-11T19:58:43.212Z,62.24
2022-12-11T20:01:18.431Z,62.50
2022-12-11T20:03:48.149Z,62.34
2022-12-11T20:06:16.337Z,63.08
2022-12-11T20:08:45.905Z,62.82
2022-12-11T20:11:18.359Z,62.58
2022-12-11T20:13:47.344Z,62.56
2022-12-11T20:16:16.580Z,62.15
2022-12-11T20:18:44.963Z,62.72
2022-12-11T20:21:16.599Z,62.83
2022-12-11T20:23:45.802Z,62.43
2022-12-11T20:26:16.437Z,62.15
2022-12-11T20:28:44.954Z,62.32
2022-12-11T20:31:20.040Z,62.25
2022-12-11T20:33:49.241Z,62.44
2022-12-11T20:36:20.808Z,62.72
2022-12-11T20:38:48.898Z,62.97
2022-12-11T20:41:18.975Z,62.76
2022-12-11T20:43:49.008Z,62.84
2022-12-11T20:46:18.590Z,63.18
2022-12-11T20:48:47.173Z,62.73
2022-12-11T20:51:20.965Z,62.88
2022-12-11T20:53:58.655Z,62.53
2022-12-11T20:56:29.473Z,62.37
2022-12-11T20:58:58.450Z,62.50
2022-12-11T21:01:29.487Z,63.74
2022-12-11T21:03:58.028Z,62.99
2022-12-11T21:06:31.233Z,62.61
2022-12-11T21:09:02.349Z,63.00
2022-12-11T21:11:30.556Z,63.85
2022-12-11T21:13:58.604Z,63.40
2022-12-11T21:16:26.810Z,62.79
2022-12-11T21:18:56.024Z,62.85
2022-12-11T21:21:24.429Z,62.77
2022-12-11T21:23:52.789Z,62.61
2022-12-11T21:26:22.356Z,62.45
2022-12-11T21:28:50.538Z,62.28
2022-12-11T21:31:19.829Z,62.44
2022-12-11T21:33:48.452Z,62.41
2022-12-11T21:36:17.397Z,62.39
2022-12-11T21:38:46.472Z,62.32
2022-12-11T21:41:17.021Z,62.05
2022-12-11T21:44:40.939Z,62.21
2022-12-11T21:46:35.894Z,62.28
2022-12-11T21:49:04.101Z,62.05
2022-12-11T21:51:37.215Z,61.92
2022-12-11T21:54:10.252Z,61.90
2022-12-11T21:56:38.428Z,62.34
2022-12-11T21:59:07.820Z,62.11
2022-12-11T22:01:38.518Z,62.13
2022-12-11T22:04:06.887Z,62.50
2022-12-11T22:06:35.621Z,62.53
2022-12-11T22:09:04.613Z,62.21
2022-12-11T22:11:34.489Z,62.95
2022-12-11T22:14:03.257Z,62.59
2022-12-11T22:16:32.737Z,62.22
2022-12-11T22:19:01.297Z,62.30
2022-12-11T22:21:29.934Z,62.14
2022-12-11T22:23:57.989Z,62.08
2022-12-11T22:26:28.487Z,62.08
2022-12-11T22:28:57.915Z,62.09
2022-12-11T22:31:28.010Z,61.75
2022-12-11T22:33:57.712Z,61.57
2022-12-11T22:36:27.239Z,61.57
2022-12-11T22:38:55.483Z,61.58
2022-12-11T22:41:26.517Z,61.36
2022-12-11T22:43:55.501Z,61.51
2022-12-11T22:46:25.840Z,61.28
2022-12-11T22:48:54.598Z,61.39
2022-12-11T22:51:24.219Z,61.02
2022-12-11T22:53:52.221Z,61.59
2022-12-11T22:56:20.435Z,61.50
2022-12-11T22:58:48.482Z,61.41
2022-12-11T23:01:20.083Z,61.39
2022-12-11T23:03:48.252Z,61.62
2022-12-11T23:06:18.978Z,61.51
2022-12-11T23:08:48.692Z,61.30
2022-12-11T23:11:21.339Z,61.67
2022-12-11T23:13:49.427Z,61.21
2022-12-11T23:16:17.897Z,61.47
2022-12-11T23:18:46.012Z,61.45
2022-12-11T23:21:15.275Z,61.53
2022-12-11T23:23:43.369Z,61.39
2022-12-11T23:26:15.150Z,61.43
2022-12-11T23:28:43.513Z,61.22
2022-12-11T23:31:12.445Z,61.22
2022-12-11T23:33:40.611Z,61.72
2022-12-11T23:36:09.764Z,62.24
2022-12-11T23:38:37.878Z,61.95
2022-12-11T23:41:06.818Z,62.15
2022-12-11T23:43:38.181Z,62.37
2022-12-11T23:46:09.529Z,62.15
2022-12-11T23:48:37.628Z,61.85
2022-12-11T23:51:06.478Z,61.90
2022-12-11T23:53:34.873Z,61.93
2022-12-11T23:56:05.014Z,61.96
2022-12-11T23:58:33.281Z,62.34
